createdAt,value
2022-11-07T00:01:23.959Z,40.40
2022-11-07T00:04:31.301Z,39.00
2022-11-07T00:07:34.362Z,39.00
2022-11-07T00:10:37.328Z,36.80
2022-11-07T00:13:40.312Z,41.10
2022-11-07T00:16:44.869Z,37.10
2022-11-07T00:19:49.337Z,36.30
2022-11-07T00:22:52.309Z,40.80
2022-11-07T00:26:00.768Z,37.10
2022-11-07T00:29:06.517Z,40.80
2022-11-07T00:32:09.501Z,36.90
2022-11-07T00:35:12.421Z,36.70
2022-11-07T00:38:15.564Z,36.20
2022-11-07T00:41:19.302Z,33.70
2022-11-07T00:44:22.854Z,37.40
2022-11-07T00:47:25.820Z,34.40
2022-11-07T00:50:28.754Z,35.70
2022-11-07T00:53:31.686Z,39.80
2022-11-07T00:56:34.676Z,38.40
2022-11-07T00:59:37.551Z,34.90
2022-11-07T01:02:40.541Z,34.40
2022-11-07T01:05:43.568Z,35.00
2022-11-07T01:08:46.567Z,35.40
2022-11-07T01:11:49.980Z,35.40
2022-11-07T01:14:52.893Z,37.70
2022-11-07T01:17:55.884Z,37.30
2022-11-07T01:20:58.902Z,35.60
2022-11-07T01:24:03.603Z,38.90
2022-11-07T01:27:06.603Z,37.80
2022-11-07T01:30:10.121Z,37.50
2022-11-07T01:33:13.644Z,36.20
2022-11-07T01:36:17.981Z,38.90
2022-11-07T01:39:20.877Z,35.20
2022-11-07T01:42:24.463Z,37.30
2022-11-07T01:45:29.879Z,35.50
2022-11-07T01:48:33.053Z,36.10
2022-11-07T01:51:41.721Z,31.80
2022-11-07T01:54:55.088Z,36.60
2022-11-07T01:58:03.186Z,32.70
2022-11-07T02:01:06.087Z,34.90
2022-11-07T02:04:10.518Z,36.40
2022-11-07T02:07:18.812Z,31.80
2022-11-07T02:10:21.890Z,32.40
2022-11-07T02:13:28.102Z,32.20
2022-11-07T02:16:32.844Z,34.70
2022-11-07T02:19:49.890Z,32.60
2022-11-07T02:22:57.218Z,29.00
2022-11-07T02:26:00.361Z,33.20
2022-11-07T02:29:09.478Z,37.00
2022-11-07T02:32:12.867Z,33.00
2022-11-07T02:35:46.626Z,31.50
2022-11-07T02:38:57.507Z,32.70
2022-11-07T02:42:02.583Z,32.70
2022-11-07T02:45:06.351Z,30.70
2022-11-07T02:48:09.584Z,31.60
2022-11-07T02:51:13.211Z,31.90
2022-11-07T02:54:16.184Z,37.10
2022-11-07T02:57:19.119Z,31.50
2022-11-07T03:00:22.151Z,32.30
2022-11-07T03:03:25.109Z,31.80
2022-11-07T03:06:28.364Z,32.70
2022-11-07T03:09:31.495Z,29.60
2022-11-07T03:12:34.606Z,30.80
2022-11-07T03:15:37.534Z,33.30
2022-11-07T03:18:40.619Z,35.80
2022-11-07T03:21:43.577Z,31.10
2022-11-07T03:24:46.561Z,32.90
2022-11-07T03:27:50.417Z,31.60
2022-11-07T03:30:53.731Z,31.30
2022-11-07T03:33:56.821Z,31.60
2022-11-07T03:36:59.772Z,33.60
2022-11-07T03:40:02.836Z,37.00
2022-11-07T03:43:05.856Z,36.30
2022-11-07T03:46:08.792Z,37.50
2022-11-07T03:49:11.715Z,35.50
2022-11-07T03:52:14.641Z,40.20
2022-11-07T03:55:18.374Z,34.70
2022-11-07T03:58:21.789Z,36.20
2022-11-07T04:01:24.857Z,33.70
2022-11-07T04:04:28.069Z,37.40
2022-11-07T04:07:31.069Z,37.70
2022-11-07T04:10:34.055Z,32.80
2022-11-07T04:13:55.860Z,32.90
2022-11-07T04:17:17.459Z,32.80
2022-11-07T04:20:20.577Z,31.70
2022-11-07T04:23:23.541Z,33.20
2022-11-07T04:26:45.070Z,34.60
2022-11-07T04:29:48.039Z,39.70
2022-11-07T04:32:56.904Z,36.00
2022-11-07T04:35:59.953Z,42.00
2022-11-07T04:39:03.038Z,41.00
2022-11-07T04:42:05.998Z,37.60
2022-11-07T04:45:09.595Z,40.50
2022-11-07T04:48:12.942Z,40.40
2022-11-07T04:51:20.638Z,37.30
2022-11-07T04:54:23.745Z,35.20
2022-11-07T04:57:26.695Z,34.20
2022-11-07T05:00:29.665Z,36.80
2022-11-07T05:03:36.218Z,36.00
2022-11-07T05:06:42.105Z,44.50
2022-11-07T05:09:45.081Z,36.90
2022-11-07T05:12:48.134Z,36.90
2022-11-07T05:15:51.228Z,36.20
2022-11-07T05:18:54.192Z,39.10
2022-11-07T05:22:15.318Z,44.20
2022-11-07T05:25:18.315Z,42.90
2022-11-07T05:28:30.302Z,39.20
2022-11-07T05:31:38.453Z,39.60
2022-11-07T05:34:41.486Z,44.40
2022-11-07T05:37:44.445Z,36.80
2022-11-07T05:40:47.431Z,37.00
2022-11-07T05:43:50.385Z,35.00
2022-11-07T05:46:53.250Z,32.10
2022-11-07T05:49:56.205Z,33.40
2022-11-07T05:52:59.379Z,32.70
2022-11-07T05:56:02.423Z,36.80
2022-11-07T05:59:05.388Z,31.60
2022-11-07T06:02:08.420Z,32.70
2022-11-07T06:05:12.328Z,31.10
2022-11-07T06:08:15.784Z,35.40
2022-11-07T06:11:18.796Z,30.80
2022-11-07T06:14:21.690Z,30.20
2022-11-07T06:17:24.679Z,23.60
2022-11-07T06:20:27.964Z,27.50
2022-11-07T06:23:30.857Z,29.90
2022-11-07T06:26:33.785Z,27.30
2022-11-07T06:29:36.685Z,25.30
2022-11-07T06:32:45.346Z,25.50
2022-11-07T06:35:48.473Z,25.70
2022-11-07T06:38:55.069Z,24.40
2022-11-07T06:41:57.950Z,22.60
2022-11-07T06:45:00.846Z,23.60
2022-11-07T06:48:04.537Z,21.40
2022-11-07T06:51:10.042Z,28.10
2022-11-07T06:54:13.392Z,24.00
2022-11-07T06:57:16.536Z,26.40
2022-11-07T07:00:19.626Z,22.60
2022-11-07T07:03:22.514Z,22.30
2022-11-07T07:06:25.512Z,20.50
2022-11-07T07:09:28.507Z,20.80
2022-11-07T07:12:31.457Z,23.20
2022-11-07T07:15:49.387Z,20.70
2022-11-07T07:18:53.626Z,22.50
2022-11-07T07:21:56.808Z,16.60
2022-11-07T07:24:59.768Z,20.00
2022-11-07T07:28:02.642Z,18.50
2022-11-07T07:31:14.589Z,19.30
2022-11-07T07:34:17.557Z,18.20
2022-11-07T07:37:20.504Z,15.00
2022-11-07T07:40:23.495Z,18.50
2022-11-07T07:43:27.855Z,17.10
2022-11-07T07:46:30.830Z,17.60
2022-11-07T07:49:33.845Z,14.10
2022-11-07T07:52:37.746Z,17.00
2022-11-07T07:55:41.759Z,15.80
2022-11-07T07:58:45.762Z,16.10
2022-11-07T08:01:53.555Z,11.50
2022-11-07T08:04:59.834Z,12.40
2022-11-07T08:08:02.856Z,13.10
2022-11-07T08:11:08.644Z,12.50
2022-11-07T08:14:11.912Z,14.00
2022-11-07T08:17:14.904Z,12.00
2022-11-07T08:20:24.615Z,13.00
2022-11-07T08:23:27.758Z,11.00
2022-11-07T08:26:31.461Z,9.50
2022-11-07T08:29:34.503Z,12.10
2022-11-07T08:32:37.543Z,9.00
2022-11-07T08:35:42.731Z,11.80
2022-11-07T08:38:46.009Z,10.60
2022-11-07T08:41:49.055Z,11.00
2022-11-07T08:44:52.187Z,10.30
2022-11-07T08:47:59.347Z,10.20
2022-11-07T08:51:05.200Z,10.90
2022-11-07T08:54:08.229Z,9.30
2022-11-07T08:57:11.668Z,13.20
2022-11-07T09:00:14.861Z,10.20
2022-11-07T09:03:39.128Z,12.20
2022-11-07T09:06:42.451Z,9.30
2022-11-07T09:09:45.460Z,9.80
2022-11-07T09:12:49.816Z,13.10
2022-11-07T09:15:59.408Z,10.60
2022-11-07T09:19:04.834Z,13.20
2022-11-07T09:22:07.968Z,14.80
2022-11-07T09:25:11.537Z,22.60
2022-11-07T09:28:15.197Z,14.50
2022-11-07T09:31:20.549Z,10.10
2022-11-07T09:34:23.552Z,10.10
2022-11-07T09:37:26.611Z,12.40
2022-11-07T09:40:52.697Z,12.90
2022-11-07T09:44:11.080Z,13.00
2022-11-07T09:47:29.451Z,12.70
2022-11-07T09:50:39.208Z,11.00
2022-11-07T09:53:47.372Z,12.00
2022-11-07T09:56:51.195Z,14.50
2022-11-07T09:59:57.785Z,14.20
2022-11-07T10:03:02.270Z,11.30
2022-11-07T10:06:27.302Z,11.30
2022-11-07T10:09:57.517Z,9.30
2022-11-07T10:13:34.825Z,9.60
2022-11-07T10:17:09.021Z,11.10
2022-11-07T10:20:30.320Z,10.90
2022-11-07T10:23:52.333Z,11.90
2022-11-07T10:26:56.665Z,14.70
2022-11-07T10:30:01.525Z,15.70
2022-11-07T10:33:20.979Z,13.60
2022-11-07T10:36:30.128Z,11.40
2022-11-07T10:39:33.147Z,11.80
2022-11-07T10:42:36.135Z,10.00
2022-11-07T10:45:40.112Z,9.80
2022-11-07T10:48:53.423Z,8.50
2022-11-07T10:52:16.911Z,11.80
2022-11-07T10:55:20.751Z,8.60
2022-11-07T10:58:35.886Z,9.30
2022-11-07T11:01:39.007Z,8.50
2022-11-07T11:04:50.894Z,10.30
2022-11-07T11:07:56.850Z,8.20
2022-11-07T11:11:00.006Z,9.80
2022-11-07T11:14:09.181Z,10.60
2022-11-07T11:17:26.500Z,7.90
2022-11-07T11:20:44.164Z,8.70
2022-11-07T11:23:48.357Z,8.50
2022-11-07T11:26:53.823Z,9.40
2022-11-07T11:29:57.103Z,10.20
2022-11-07T11:33:09.005Z,8.90
2022-11-07T11:36:23.387Z,7.40
2022-11-07T11:39:39.290Z,8.40
2022-11-07T11:43:00.011Z,7.30
2022-11-07T11:46:36.798Z,9.20
2022-11-07T11:49:59.441Z,10.40
2022-11-07T11:53:02.459Z,10.00
2022-11-07T11:56:09.160Z,7.50
2022-11-07T11:59:30.772Z,10.20
2022-11-07T12:02:48.429Z,15.30
2022-11-07T12:06:13.935Z,10.60
2022-11-07T12:09:33.132Z,8.60
2022-11-07T12:13:10.001Z,8.20
2022-11-07T12:16:31.167Z,10.00
2022-11-07T12:19:38.956Z,9.90
2022-11-07T12:22:53.078Z,8.00
2022-11-07T12:26:14.770Z,8.70
2022-11-07T12:29:34.942Z,8.80
2022-11-07T12:32:45.554Z,8.90
2022-11-07T12:36:00.431Z,7.20
2022-11-07T12:39:37.968Z,14.10
2022-11-07T12:43:13.793Z,7.60
2022-11-07T12:46:27.064Z,11.50
2022-11-07T12:50:04.353Z,10.70
2022-11-07T12:53:13.686Z,9.20
2022-11-07T12:56:23.339Z,11.10
2022-11-07T12:59:29.790Z,7.80
2022-11-07T13:02:53.923Z,8.60
2022-11-07T13:06:09.898Z,10.20
2022-11-07T13:09:31.427Z,8.20
2022-11-07T13:12:41.235Z,9.50
2022-11-07T13:16:13.396Z,10.30
2022-11-07T13:19:21.126Z,8.20
2022-11-07T13:22:32.682Z,9.50
2022-11-07T13:25:35.958Z,8.20
2022-11-07T13:28:40.254Z,8.90
2022-11-07T13:31:45.607Z,8.60
2022-11-07T13:35:07.183Z,8.20
2022-11-07T13:38:20.291Z,9.30
2022-11-07T13:41:25.097Z,13.90
2022-11-07T13:44:32.886Z,11.50
2022-11-07T13:47:40.775Z,12.40
2022-11-07T13:50:50.567Z,9.60
2022-11-07T13:54:04.833Z,8.00
2022-11-07T13:57:20.765Z,8.80
2022-11-07T14:00:23.940Z,7.60
2022-11-07T14:03:28.073Z,8.80
2022-11-07T14:06:32.113Z,10.20
2022-11-07T14:09:35.309Z,9.10
2022-11-07T14:12:40.023Z,9.50
2022-11-07T14:15:55.903Z,10.60
2022-11-07T14:19:07.110Z,7.90
2022-11-07T14:22:25.585Z,9.50
2022-11-07T14:25:33.546Z,7.90
2022-11-07T14:28:40.496Z,9.60
2022-11-07T14:31:45.448Z,10.30
2022-11-07T14:34:50.456Z,9.30
2022-11-07T14:37:54.214Z,8.50
2022-11-07T14:41:01.419Z,16.90
2022-11-07T14:44:12.766Z,11.80
2022-11-07T14:47:22.013Z,16.20
2022-11-07T14:50:28.038Z,13.20
2022-11-07T14:53:37.612Z,14.10
2022-11-07T14:56:45.605Z,11.50
2022-11-07T14:59:48.945Z,10.10
2022-11-07T15:02:55.393Z,8.00
2022-11-07T15:05:59.067Z,8.00
2022-11-07T15:09:05.627Z,10.50
2022-11-07T15:12:17.560Z,9.60
2022-11-07T15:15:35.654Z,12.40
2022-11-07T15:18:42.945Z,10.00
2022-11-07T15:21:58.069Z,12.00
2022-11-07T15:25:01.280Z,8.90
2022-11-07T15:28:19.942Z,14.00
2022-11-07T15:31:29.474Z,12.60
2022-11-07T15:34:58.291Z,11.50
2022-11-07T15:38:00.956Z,13.40
2022-11-07T15:41:04.161Z,15.60
2022-11-07T15:44:07.184Z,13.40
2022-11-07T15:47:19.288Z,13.90
2022-11-07T15:50:24.805Z,12.20
2022-11-07T15:53:29.433Z,13.00
2022-11-07T15:56:32.391Z,15.80
2022-11-07T15:59:37.144Z,14.50
2022-11-07T16:02:42.360Z,16.00
2022-11-07T16:05:47.342Z,20.90
2022-11-07T16:08:50.345Z,24.10
2022-11-07T16:11:53.323Z,26.20
2022-11-07T16:14:59.298Z,29.80
2022-11-07T16:18:02.828Z,24.50
2022-11-07T16:21:06.206Z,22.40
2022-11-07T16:24:09.444Z,22.40
2022-11-07T16:27:18.452Z,26.50
2022-11-07T16:30:22.236Z,24.50
2022-11-07T16:33:26.155Z,21.60
2022-11-07T16:36:32.395Z,25.70
2022-11-07T16:39:35.342Z,23.70
2022-11-07T16:42:38.359Z,25.20
2022-11-07T16:45:55.262Z,24.00
2022-11-07T16:49:12.655Z,23.50
2022-11-07T16:52:18.282Z,24.90
2022-11-07T16:55:21.163Z,38.50
2022-11-07T16:58:30.349Z,28.30
2022-11-07T17:01:34.277Z,24.70
2022-11-07T17:04:37.950Z,23.80
2022-11-07T17:07:41.025Z,26.00
2022-11-07T17:10:45.552Z,24.00
2022-11-07T17:13:48.524Z,20.20
2022-11-07T17:16:51.504Z,22.70
2022-11-07T17:19:54.480Z,30.30
2022-11-07T17:22:57.926Z,46.10
2022-11-07T17:26:02.586Z,32.80
2022-11-07T17:29:08.374Z,19.90
2022-11-07T17:32:11.260Z,23.60
2022-11-07T17:38:37.425Z,22.70
2022-11-07T17:41:40.983Z,21.40
2022-11-07T17:44:43.960Z,20.40
2022-11-07T17:47:46.923Z,22.80
2022-11-07T17:50:49.854Z,20.40
2022-11-07T17:53:53.907Z,23.30
2022-11-07T17:56:56.852Z,21.60
2022-11-07T18:00:00.062Z,25.40
2022-11-07T18:03:03.251Z,24.70
2022-11-07T18:06:06.490Z,27.00
2022-11-07T18:09:17.225Z,24.90
2022-11-07T18:12:20.121Z,30.40
2022-11-07T18:15:23.030Z,32.90
2022-11-07T18:18:27.166Z,31.30
2022-11-07T18:21:33.297Z,30.40
2022-11-07T18:24:36.319Z,29.00
2022-11-07T18:27:39.327Z,33.20
2022-11-07T18:30:42.354Z,33.50
2022-11-07T18:34:28.988Z,29.40
2022-11-07T18:37:40.749Z,29.10
2022-11-07T18:41:02.965Z,29.40
2022-11-07T18:44:23.153Z,31.50
2022-11-07T18:47:26.396Z,35.10
2022-11-07T18:50:29.496Z,33.40
2022-11-07T18:53:32.674Z,35.90
2022-11-07T18:56:35.737Z,34.90
2022-11-07T18:59:39.649Z,34.80
2022-11-07T19:02:42.627Z,33.90
2022-11-07T19:05:45.597Z,35.90
2022-11-07T19:08:49.252Z,31.90
2022-11-07T19:11:52.405Z,39.90
2022-11-07T19:14:55.567Z,41.20
2022-11-07T19:17:58.569Z,40.20
2022-11-07T19:24:35.381Z,39.40
2022-11-07T19:27:38.474Z,41.70
2022-11-07T19:30:47.395Z,41.60
2022-11-07T19:33:50.520Z,40.00
2022-11-07T19:36:53.793Z,38.90
2022-11-07T19:39:56.890Z,36.90
2022-11-07T19:43:01.540Z,40.20
2022-11-07T19:46:11.311Z,37.20
2022-11-07T19:49:14.288Z,32.30
2022-11-07T19:52:17.294Z,34.20
2022-11-07T19:55:20.343Z,33.10
2022-11-07T19:58:23.265Z,34.10
2022-11-07T20:01:29.781Z,38.20
2022-11-07T20:04:32.809Z,36.30
2022-11-07T20:07:35.959Z,37.20
2022-11-07T20:10:45.744Z,34.00
2022-11-07T20:13:48.862Z,33.70
2022-11-07T20:16:52.129Z,33.70
2022-11-07T20:19:55.192Z,29.80
2022-11-07T20:23:00.315Z,28.90
2022-11-07T20:26:15.037Z,34.10
2022-11-07T20:29:19.223Z,30.10
2022-11-07T20:32:22.348Z,29.10
2022-11-07T20:35:25.338Z,33.20
2022-11-07T20:38:29.679Z,33.90
2022-11-07T20:41:33.441Z,24.80
2022-11-07T20:44:36.431Z,30.00
2022-11-07T20:47:40.281Z,32.50
2022-11-07T20:50:43.393Z,30.50
2022-11-07T20:53:50.411Z,29.30
2022-11-07T20:56:53.797Z,29.00
2022-11-07T20:59:56.763Z,28.40
2022-11-07T21:02:59.833Z,31.10
2022-11-07T21:06:03.616Z,28.90
2022-11-07T21:09:07.472Z,33.10
2022-11-07T21:12:11.378Z,29.90
2022-11-07T21:15:14.487Z,32.80
2022-11-07T21:18:17.735Z,30.30
2022-11-07T21:21:23.679Z,31.90
2022-11-07T21:24:30.736Z,31.30
2022-11-07T21:27:36.345Z,30.00
2022-11-07T21:30:39.785Z,34.60
2022-11-07T21:33:42.881Z,29.50
2022-11-07T21:36:45.809Z,27.50
2022-11-07T21:39:48.832Z,30.20
2022-11-07T21:42:54.982Z,28.50
2022-11-07T21:46:19.292Z,30.70
2022-11-07T21:49:22.364Z,30.70
2022-11-07T21:52:25.507Z,28.20
2022-11-07T21:55:28.411Z,26.60
2022-11-07T21:58:31.432Z,27.20
2022-11-07T22:01:37.147Z,29.60
2022-11-07T22:04:42.949Z,31.70
2022-11-07T22:07:46.023Z,27.40
2022-11-07T22:10:49.126Z,26.90
2022-11-07T22:13:52.128Z,28.10
2022-11-07T22:16:55.917Z,33.00
2022-11-07T22:19:58.988Z,31.10
2022-11-07T22:23:02.064Z,31.50
2022-11-07T22:26:15.412Z,31.70
2022-11-07T22:29:18.975Z,33.40
2022-11-07T22:32:22.231Z,28.80
2022-11-07T22:35:25.393Z,31.80
2022-11-07T22:38:28.537Z,36.90
2022-11-07T22:41:31.789Z,32.00
2022-11-07T22:44:34.810Z,32.20
2022-11-07T22:47:37.899Z,30.50
2022-11-07T22:50:43.243Z,31.10
2022-11-07T22:53:46.403Z,37.20
2022-11-07T22:56:49.509Z,33.00
2022-11-07T22:59:53.503Z,29.90
2022-11-07T23:02:57.048Z,29.80
2022-11-07T23:06:04.712Z,31.20
2022-11-07T23:09:07.958Z,32.40
2022-11-07T23:12:11.035Z,30.10
2022-11-07T23:15:14.160Z,30.90
2022-11-07T23:18:17.377Z,31.20
2022-11-07T23:21:20.921Z,33.10
2022-11-07T23:24:24.232Z,31.00
2022-11-07T23:27:31.036Z,30.80
2022-11-07T23:30:37.996Z,29.20
2022-11-07T23:33:41.182Z,29.20
2022-11-07T23:36:44.974Z,27.40
2022-11-07T23:39:48.152Z,28.00
2022-11-07T23:42:51.192Z,29.20
2022-11-07T23:46:14.711Z,29.50
2022-11-07T23:49:36.198Z,34.90
2022-11-07T23:52:39.204Z,33.10
2022-11-07T23:55:42.458Z,30.70
2022-11-07T23:59:04.687Z,33.60
